sensor_id;sensor_type;location;lat;lon;timestamp;temperature;humidity
29687;DHT22;16599;47.078;15.536;2024-02-04T00:01:32;1.10;99.90
29687;DHT22;16599;47.078;15.536;2024-02-04T00:03:59;1.00;99.90
29687;DHT22;16599;47.078;15.536;2024-02-04T00:06:26;0.90;99.90
29687;DHT22;16599;47.078;15.536;2024-02-04T00:08:53;1.30;99.90
29687;DHT22;16599;47.078;15.536;2024-02-04T00:11:20;1.50;99.90
29687;DHT22;16599;47.078;15.536;2024-02-04T00:13:47;1.30;99.90
29687;DHT22;16599;47.078;15.536;2024-02-04T00:16:14;1.30;99.90
29687;DHT22;16599;47.078;15.536;2024-02-04T00:18:41;1.60;99.90
29687;DHT22;16599;47.078;15.536;2024-02-04T00:21:08;1.30;99.90
29687;DHT22;16599;47.078;15.536;2024-02-04T00:23:35;0.90;99.90
29687;DHT22;16599;47.078;15.536;2024-02-04T00:26:02;1.00;99.90
29687;DHT22;16599;47.078;15.536;2024-02-04T00:28:29;1.20;99.90
29687;DHT22;16599;47.078;15.536;2024-02-04T00:30:56;0.70;99.90
29687;DHT22;16599;47.078;15.536;2024-02-04T00:33:26;0.90;99.90
29687;DHT22;16599;47.078;15.536;2024-02-04T00:35:53;1.20;99.90
29687;DHT22;16599;47.078;15.536;2024-02-04T00:38:20;0.80;99.90
29687;DHT22;16599;47.078;15.536;2024-02-04T00:40:46;1.50;99.90
29687;DHT22;16599;47.078;15.536;2024-02-04T00:43:13;1.60;99.90
29687;DHT22;16599;47.078;15.536;2024-02-04T00:45:40;1.40;99.90
29687;DHT22;16599;47.078;15.536;2024-02-04T00:48:07;1.10;99.90
29687;DHT22;16599;47.078;15.536;2024-02-04T00:50:34;0.90;99.90
29687;DHT22;16599;47.078;15.536;2024-02-04T00:53:01;1.00;99.90
29687;DHT22;16599;47.078;15.536;2024-02-04T00:55:28;0.90;99.90
29687;DHT22;16599;47.078;15.536;2024-02-04T00:57:55;0.80;99.90
29687;DHT22;16599;47.078;15.536;2024-02-04T01:00:25;0.80;99.90
29687;DHT22;16599;47.078;15.536;2024-02-04T01:02:52;0.90;99.90
29687;DHT22;16599;47.078;15.536;2024-02-04T01:05:19;0.90;99.90
29687;DHT22;16599;47.078;15.536;2024-02-04T01:07:46;0.90;99.90
29687;DHT22;16599;47.078;15.536;2024-02-04T01:10:13;1.10;99.90
29687;DHT22;16599;47.078;15.536;2024-02-04T01:12:40;1.20;99.90
29687;DHT22;16599;47.078;15.536;2024-02-04T01:15:07;0.90;99.90
29687;DHT22;16599;47.078;15.536;2024-02-04T01:17:34;1.00;99.90
29687;DHT22;16599;47.078;15.536;2024-02-04T01:20:01;1.00;99.90
29687;DHT22;16599;47.078;15.536;2024-02-04T01:22:28;1.30;99.90
29687;DHT22;16599;47.078;15.536;2024-02-04T01:24:57;1.30;99.90
29687;DHT22;16599;47.078;15.536;2024-02-04T01:27:24;1.20;99.90
29687;DHT22;16599;47.078;15.536;2024-02-04T01:29:51;1.20;99.90
29687;DHT22;16599;47.078;15.536;2024-02-04T01:32:20;1.30;99.90
29687;DHT22;16599;47.078;15.536;2024-02-04T01:34:46;1.00;99.90
29687;DHT22;16599;47.078;15.536;2024-02-04T01:37:15;1.20;99.90
29687;DHT22;16599;47.078;15.536;2024-02-04T01:39:42;1.40;99.90
29687;DHT22;16599;47.078;15.536;2024-02-04T01:42:09;1.40;99.90
29687;DHT22;16599;47.078;15.536;2024-02-04T01:44:36;1.30;99.90
29687;DHT22;16599;47.078;15.536;2024-02-04T01:47:04;1.30;99.90
29687;DHT22;16599;47.078;15.536;2024-02-04T01:49:31;1.20;99.90
29687;DHT22;16599;47.078;15.536;2024-02-04T01:51:58;1.30;99.90
29687;DHT22;16599;47.078;15.536;2024-02-04T01:54:26;1.30;99.90
29687;DHT22;16599;47.078;15.536;2024-02-04T01:56:53;1.40;99.90
29687;DHT22;16599;47.078;15.536;2024-02-04T01:59:22;1.50;99.90
29687;DHT22;16599;47.078;15.536;2024-02-04T02:01:55;1.50;99.90
29687;DHT22;16599;47.078;15.536;2024-02-04T02:04:22;1.50;99.90
29687;DHT22;16599;47.078;15.536;2024-02-04T02:06:49;1.60;99.90
29687;DHT22;16599;47.078;15.536;2024-02-04T02:09:16;1.60;99.90
29687;DHT22;16599;47.078;15.536;2024-02-04T02:11:44;1.40;99.90
29687;DHT22;16599;47.078;15.536;2024-02-04T02:14:16;1.40;99.90
29687;DHT22;16599;47.078;15.536;2024-02-04T02:16:45;1.60;99.90
29687;DHT22;16599;47.078;15.536;2024-02-04T02:22:04;1.60;99.90
29687;DHT22;16599;47.078;15.536;2024-02-04T02:24:38;1.80;99.90
29687;DHT22;16599;47.078;15.536;2024-02-04T02:27:08;1.80;99.90
29687;DHT22;16599;47.078;15.536;2024-02-04T02:29:35;1.80;99.90
29687;DHT22;16599;47.078;15.536;2024-02-04T02:32:02;1.90;99.90
29687;DHT22;16599;47.078;15.536;2024-02-04T02:34:32;1.80;99.90
29687;DHT22;16599;47.078;15.536;2024-02-04T02:39:32;1.80;99.90
29687;DHT22;16599;47.078;15.536;2024-02-04T02:42:01;1.90;99.90
29687;DHT22;16599;47.078;15.536;2024-02-04T02:44:28;2.00;99.90
29687;DHT22;16599;47.078;15.536;2024-02-04T02:46:56;2.00;99.90
29687;DHT22;16599;47.078;15.536;2024-02-04T02:49:24;1.90;99.90
29687;DHT22;16599;47.078;15.536;2024-02-04T02:51:51;2.00;99.90
29687;DHT22;16599;47.078;15.536;2024-02-04T02:54:18;2.10;99.90
29687;DHT22;16599;47.078;15.536;2024-02-04T02:56:44;2.10;99.90
29687;DHT22;16599;47.078;15.536;2024-02-04T02:59:11;2.10;99.90
29687;DHT22;16599;47.078;15.536;2024-02-04T03:01:39;2.10;99.90
29687;DHT22;16599;47.078;15.536;2024-02-04T03:04:06;2.10;99.90
29687;DHT22;16599;47.078;15.536;2024-02-04T03:06:33;2.50;99.90
29687;DHT22;16599;47.078;15.536;2024-02-04T03:09:00;2.50;99.90
29687;DHT22;16599;47.078;15.536;2024-02-04T03:11:27;2.10;99.90
29687;DHT22;16599;47.078;15.536;2024-02-04T03:13:54;2.40;99.90
29687;DHT22;16599;47.078;15.536;2024-02-04T03:16:20;2.30;99.90
29687;DHT22;16599;47.078;15.536;2024-02-04T03:18:47;2.20;99.90
29687;DHT22;16599;47.078;15.536;2024-02-04T03:21:15;2.30;99.90
29687;DHT22;16599;47.078;15.536;2024-02-04T03:23:42;2.30;99.90
29687;DHT22;16599;47.078;15.536;2024-02-04T03:26:13;2.40;99.90
29687;DHT22;16599;47.078;15.536;2024-02-04T03:28:42;2.50;99.90
29687;DHT22;16599;47.078;15.536;2024-02-04T03:31:09;2.80;99.90
29687;DHT22;16599;47.078;15.536;2024-02-04T03:33:38;2.60;99.90
29687;DHT22;16599;47.078;15.536;2024-02-04T03:36:05;2.60;99.90
29687;DHT22;16599;47.078;15.536;2024-02-04T03:38:32;2.70;99.90
29687;DHT22;16599;47.078;15.536;2024-02-04T03:40:58;2.70;99.90
29687;DHT22;16599;47.078;15.536;2024-02-04T03:43:25;2.60;99.90
29687;DHT22;16599;47.078;15.536;2024-02-04T03:45:52;2.60;99.90
29687;DHT22;16599;47.078;15.536;2024-02-04T03:48:19;2.80;99.90
29687;DHT22;16599;47.078;15.536;2024-02-04T03:50:45;2.70;99.90
29687;DHT22;16599;47.078;15.536;2024-02-04T03:53:12;2.50;99.90
29687;DHT22;16599;47.078;15.536;2024-02-04T03:55:39;3.00;99.90
29687;DHT22;16599;47.078;15.536;2024-02-04T03:58:06;3.00;99.90
29687;DHT22;16599;47.078;15.536;2024-02-04T04:00:33;2.90;99.90
29687;DHT22;16599;47.078;15.536;2024-02-04T04:02:59;2.90;99.90
29687;DHT22;16599;47.078;15.536;2024-02-04T04:05:26;3.10;99.90
29687;DHT22;16599;47.078;15.536;2024-02-04T04:07:53;3.20;99.90
29687;DHT22;16599;47.078;15.536;2024-02-04T04:10:20;3.00;99.90
29687;DHT22;16599;47.078;15.536;2024-02-04T04:12:47;3.10;99.90
29687;DHT22;16599;47.078;15.536;2024-02-04T04:15:13;3.20;99.90
29687;DHT22;16599;47.078;15.536;2024-02-04T04:17:40;3.20;99.90
29687;DHT22;16599;47.078;15.536;2024-02-04T04:20:07;3.00;99.90
29687;DHT22;16599;47.078;15.536;2024-02-04T04:22:34;2.90;99.90
29687;DHT22;16599;47.078;15.536;2024-02-04T04:25:01;2.80;99.90
29687;DHT22;16599;47.078;15.536;2024-02-04T04:27:28;2.80;99.90
29687;DHT22;16599;47.078;15.536;2024-02-04T04:29:55;3.10;99.90
29687;DHT22;16599;47.078;15.536;2024-02-04T04:32:21;3.20;99.90
29687;DHT22;16599;47.078;15.536;2024-02-04T04:34:48;3.00;99.90
29687;DHT22;16599;47.078;15.536;2024-02-04T04:37:15;3.20;99.90
29687;DHT22;16599;47.078;15.536;2024-02-04T04:39:42;3.20;99.90
29687;DHT22;16599;47.078;15.536;2024-02-04T04:42:09;3.20;99.90
29687;DHT22;16599;47.078;15.536;2024-02-04T04:44:35;3.20;99.90
29687;DHT22;16599;47.078;15.536;2024-02-04T04:47:02;3.20;99.90
29687;DHT22;16599;47.078;15.536;2024-02-04T04:49:29;3.20;99.90
29687;DHT22;16599;47.078;15.536;2024-02-04T04:51:56;3.10;99.90
29687;DHT22;16599;47.078;15.536;2024-02-04T04:54:22;3.20;99.90
29687;DHT22;16599;47.078;15.536;2024-02-04T04:56:49;3.10;99.90
29687;DHT22;16599;47.078;15.536;2024-02-04T04:59:16;3.10;99.90
29687;DHT22;16599;47.078;15.536;2024-02-04T05:01:47;2.90;99.90
29687;DHT22;16599;47.078;15.536;2024-02-04T05:04:16;2.90;99.90
29687;DHT22;16599;47.078;15.536;2024-02-04T05:06:43;3.00;99.90
29687;DHT22;16599;47.078;15.536;2024-02-04T05:09:10;3.00;99.90
29687;DHT22;16599;47.078;15.536;2024-02-04T05:11:37;2.90;99.90
29687;DHT22;16599;47.078;15.536;2024-02-04T05:14:04;3.20;99.90
29687;DHT22;16599;47.078;15.536;2024-02-04T05:16:31;3.40;99.90
29687;DHT22;16599;47.078;15.536;2024-02-04T05:18:57;3.30;99.90
29687;DHT22;16599;47.078;15.536;2024-02-04T05:21:24;3.20;99.90
29687;DHT22;16599;47.078;15.536;2024-02-04T05:23:51;3.20;99.90
29687;DHT22;16599;47.078;15.536;2024-02-04T05:26:18;3.10;99.90
29687;DHT22;16599;47.078;15.536;2024-02-04T05:28:48;2.90;99.90
29687;DHT22;16599;47.078;15.536;2024-02-04T05:31:14;2.80;99.90
29687;DHT22;16599;47.078;15.536;2024-02-04T05:33:41;2.60;99.90
29687;DHT22;16599;47.078;15.536;2024-02-04T05:36:08;2.70;99.90
29687;DHT22;16599;47.078;15.536;2024-02-04T05:38:35;2.80;99.90
29687;DHT22;16599;47.078;15.536;2024-02-04T05:41:02;2.70;99.90
29687;DHT22;16599;47.078;15.536;2024-02-04T05:43:28;2.70;99.90
29687;DHT22;16599;47.078;15.536;2024-02-04T05:45:55;2.80;99.90
29687;DHT22;16599;47.078;15.536;2024-02-04T05:48:22;2.90;99.90
29687;DHT22;16599;47.078;15.536;2024-02-04T05:50:49;2.80;99.90
29687;DHT22;16599;47.078;15.536;2024-02-04T05:53:16;2.70;99.90
29687;DHT22;16599;47.078;15.536;2024-02-04T05:55:43;2.80;99.90
29687;DHT22;16599;47.078;15.536;2024-02-04T05:58:10;2.60;99.90
29687;DHT22;16599;47.078;15.536;2024-02-04T06:00:37;2.80;99.90
29687;DHT22;16599;47.078;15.536;2024-02-04T06:03:04;2.80;99.90
29687;DHT22;16599;47.078;15.536;2024-02-04T06:05:31;3.10;99.90
29687;DHT22;16599;47.078;15.536;2024-02-04T06:07:58;3.20;99.90
29687;DHT22;16599;47.078;15.536;2024-02-04T06:10:24;3.00;99.90
29687;DHT22;16599;47.078;15.536;2024-02-04T06:12:51;2.90;99.90
29687;DHT22;16599;47.078;15.536;2024-02-04T06:15:18;2.90;99.90
29687;DHT22;16599;47.078;15.536;2024-02-04T06:17:47;3.00;99.90
29687;DHT22;16599;47.078;15.536;2024-02-04T06:20:14;4.20;99.90
29687;DHT22;16599;47.078;15.536;2024-02-04T06:22:40;3.80;99.90
29687;DHT22;16599;47.078;15.536;2024-02-04T06:25:07;3.50;99.90
29687;DHT22;16599;47.078;15.536;2024-02-04T06:27:34;3.30;99.90
29687;DHT22;16599;47.078;15.536;2024-02-04T06:30:01;3.20;99.90
29687;DHT22;16599;47.078;15.536;2024-02-04T06:32:28;2.90;99.90
29687;DHT22;16599;47.078;15.536;2024-02-04T06:34:54;2.90;99.90
29687;DHT22;16599;47.078;15.536;2024-02-04T06:37:22;2.90;99.90
29687;DHT22;16599;47.078;15.536;2024-02-04T06:39:49;2.80;99.90
29687;DHT22;16599;47.078;15.536;2024-02-04T06:42:16;2.70;99.90
29687;DHT22;16599;47.078;15.536;2024-02-04T06:44:43;2.90;99.90
29687;DHT22;16599;47.078;15.536;2024-02-04T06:47:10;3.30;99.90
29687;DHT22;16599;47.078;15.536;2024-02-04T06:49:39;3.20;99.90
29687;DHT22;16599;47.078;15.536;2024-02-04T06:52:06;3.00;99.90
29687;DHT22;16599;47.078;15.536;2024-02-04T06:54:32;2.90;99.90
29687;DHT22;16599;47.078;15.536;2024-02-04T06:56:59;3.00;99.90
29687;DHT22;16599;47.078;15.536;2024-02-04T06:59:26;3.20;99.90
29687;DHT22;16599;47.078;15.536;2024-02-04T07:01:53;3.30;99.90
29687;DHT22;16599;47.078;15.536;2024-02-04T07:04:20;3.20;99.90
29687;DHT22;16599;47.078;15.536;2024-02-04T07:06:50;3.20;99.90
29687;DHT22;16599;47.078;15.536;2024-02-04T07:09:18;3.50;99.90
29687;DHT22;16599;47.078;15.536;2024-02-04T07:11:45;3.40;99.90
29687;DHT22;16599;47.078;15.536;2024-02-04T07:14:13;3.50;99.90
29687;DHT22;16599;47.078;15.536;2024-02-04T07:16:40;3.40;99.90
29687;DHT22;16599;47.078;15.536;2024-02-04T07:19:06;3.40;99.90
29687;DHT22;16599;47.078;15.536;2024-02-04T07:21:33;4.00;99.90
29687;DHT22;16599;47.078;15.536;2024-02-04T07:24:00;4.00;99.90
29687;DHT22;16599;47.078;15.536;2024-02-04T07:26:27;3.80;99.90
29687;DHT22;16599;47.078;15.536;2024-02-04T07:28:53;4.00;99.90
29687;DHT22;16599;47.078;15.536;2024-02-04T07:31:20;4.30;99.90
29687;DHT22;16599;47.078;15.536;2024-02-04T07:33:48;4.30;99.90
29687;DHT22;16599;47.078;15.536;2024-02-04T07:36:15;4.20;99.90
29687;DHT22;16599;47.078;15.536;2024-02-04T07:38:42;4.40;99.90
29687;DHT22;16599;47.078;15.536;2024-02-04T07:41:09;4.60;99.90
29687;DHT22;16599;47.078;15.536;2024-02-04T07:43:36;4.70;99.90
29687;DHT22;16599;47.078;15.536;2024-02-04T07:46:03;4.80;99.90
29687;DHT22;16599;47.078;15.536;2024-02-04T07:48:31;5.00;99.90
29687;DHT22;16599;47.078;15.536;2024-02-04T07:50:58;5.00;99.90
29687;DHT22;16599;47.078;15.536;2024-02-04T07:53:25;5.00;99.90
29687;DHT22;16599;47.078;15.536;2024-02-04T07:55:51;5.10;99.90
29687;DHT22;16599;47.078;15.536;2024-02-04T07:58:18;5.20;99.90
29687;DHT22;16599;47.078;15.536;2024-02-04T08:00:45;5.60;99.90
29687;DHT22;16599;47.078;15.536;2024-02-04T08:03:12;6.50;99.90
29687;DHT22;16599;47.078;15.536;2024-02-04T08:05:39;6.90;99.90
29687;DHT22;16599;47.078;15.536;2024-02-04T08:08:05;6.90;99.90
29687;DHT22;16599;47.078;15.536;2024-02-04T08:10:32;7.40;99.90
29687;DHT22;16599;47.078;15.536;2024-02-04T08:12:59;7.60;99.90
29687;DHT22;16599;47.078;15.536;2024-02-04T08:15:26;7.70;99.90
29687;DHT22;16599;47.078;15.536;2024-02-04T08:17:53;8.10;99.90
29687;DHT22;16599;47.078;15.536;2024-02-04T08:20:20;8.50;99.90
29687;DHT22;16599;47.078;15.536;2024-02-04T08:22:48;8.90;98.70
29687;DHT22;16599;47.078;15.536;2024-02-04T08:25:15;9.50;95.70
29687;DHT22;16599;47.078;15.536;2024-02-04T08:27:42;10.00;94.40
29687;DHT22;16599;47.078;15.536;2024-02-04T08:30:09;10.60;91.50
29687;DHT22;16599;47.078;15.536;2024-02-04T08:32:38;11.00;92.00
29687;DHT22;16599;47.078;15.536;2024-02-04T08:35:05;11.40;90.20
29687;DHT22;16599;47.078;15.536;2024-02-04T08:37:32;11.70;84.60
29687;DHT22;16599;47.078;15.536;2024-02-04T08:40:00;11.70;84.30
29687;DHT22;16599;47.078;15.536;2024-02-04T08:42:27;12.30;80.60
29687;DHT22;16599;47.078;15.536;2024-02-04T08:44:54;12.60;78.60
29687;DHT22;16599;47.078;15.536;2024-02-04T08:47:21;12.80;74.50
29687;DHT22;16599;47.078;15.536;2024-02-04T08:49:47;12.80;74.30
29687;DHT22;16599;47.078;15.536;2024-02-04T08:52:14;12.70;74.80
29687;DHT22;16599;47.078;15.536;2024-02-04T08:54:41;12.60;75.90
29687;DHT22;16599;47.078;15.536;2024-02-04T08:57:08;12.40;75.60
29687;DHT22;16599;47.078;15.536;2024-02-04T08:59:35;12.80;73.20
29687;DHT22;16599;47.078;15.536;2024-02-04T09:02:02;12.90;74.30
29687;DHT22;16599;47.078;15.536;2024-02-04T09:04:32;12.80;73.60
29687;DHT22;16599;47.078;15.536;2024-02-04T09:06:58;13.00;75.20
29687;DHT22;16599;47.078;15.536;2024-02-04T09:09:25;13.00;74.40
29687;DHT22;16599;47.078;15.536;2024-02-04T09:11:52;12.70;75.70
29687;DHT22;16599;47.078;15.536;2024-02-04T09:14:19;12.70;77.30
29687;DHT22;16599;47.078;15.536;2024-02-04T09:16:46;12.70;76.00
29687;DHT22;16599;47.078;15.536;2024-02-04T09:19:13;12.60;78.10
29687;DHT22;16599;47.078;15.536;2024-02-04T09:21:40;12.60;78.80
29687;DHT22;16599;47.078;15.536;2024-02-04T09:24:07;12.60;78.90
29687;DHT22;16599;47.078;15.536;2024-02-04T09:26:34;12.60;77.90
29687;DHT22;16599;47.078;15.536;2024-02-04T09:29:00;12.70;76.60
29687;DHT22;16599;47.078;15.536;2024-02-04T09:31:27;12.70;76.20
29687;DHT22;16599;47.078;15.536;2024-02-04T09:33:55;12.50;77.00
29687;DHT22;16599;47.078;15.536;2024-02-04T09:36:22;12.60;77.30
29687;DHT22;16599;47.078;15.536;2024-02-04T09:38:49;12.80;76.40
29687;DHT22;16599;47.078;15.536;2024-02-04T09:41:16;12.80;74.70
29687;DHT22;16599;47.078;15.536;2024-02-04T09:43:43;12.90;74.80
29687;DHT22;16599;47.078;15.536;2024-02-04T09:46:11;13.30;73.60
29687;DHT22;16599;47.078;15.536;2024-02-04T09:48:38;13.30;73.10
29687;DHT22;16599;47.078;15.536;2024-02-04T09:51:06;13.50;72.90
29687;DHT22;16599;47.078;15.536;2024-02-04T09:53:34;13.60;72.70
29687;DHT22;16599;47.078;15.536;2024-02-04T09:56:04;13.60;70.90
29687;DHT22;16599;47.078;15.536;2024-02-04T09:58:35;13.60;71.90
29687;DHT22;16599;47.078;15.536;2024-02-04T10:01:02;13.60;72.50
29687;DHT22;16599;47.078;15.536;2024-02-04T10:03:31;13.40;72.30
29687;DHT22;16599;47.078;15.536;2024-02-04T10:05:58;13.30;72.40
29687;DHT22;16599;47.078;15.536;2024-02-04T10:08:25;13.50;73.30
29687;DHT22;16599;47.078;15.536;2024-02-04T10:10:52;13.60;72.10
29687;DHT22;16599;47.078;15.536;2024-02-04T10:13:21;13.50;71.30
29687;DHT22;16599;47.078;15.536;2024-02-04T10:15:49;13.40;72.50
29687;DHT22;16599;47.078;15.536;2024-02-04T10:18:16;13.20;73.50
29687;DHT22;16599;47.078;15.536;2024-02-04T10:20:43;13.10;73.00
29687;DHT22;16599;47.078;15.536;2024-02-04T10:23:10;13.10;74.10
29687;DHT22;16599;47.078;15.536;2024-02-04T10:25:37;12.90;73.90
29687;DHT22;16599;47.078;15.536;2024-02-04T10:28:04;12.90;75.30
29687;DHT22;16599;47.078;15.536;2024-02-04T10:30:30;12.80;76.00
29687;DHT22;16599;47.078;15.536;2024-02-04T10:33:01;12.80;77.40
29687;DHT22;16599;47.078;15.536;2024-02-04T10:35:28;12.90;77.00
29687;DHT22;16599;47.078;15.536;2024-02-04T10:37:55;12.90;76.80
29687;DHT22;16599;47.078;15.536;2024-02-04T10:40:22;12.90;76.90
29687;DHT22;16599;47.078;15.536;2024-02-04T10:42:51;13.10;77.50
29687;DHT22;16599;47.078;15.536;2024-02-04T10:45:19;13.10;77.50
29687;DHT22;16599;47.078;15.536;2024-02-04T10:47:50;13.20;76.00
29687;DHT22;16599;47.078;15.536;2024-02-04T10:50:18;13.20;77.30
29687;DHT22;16599;47.078;15.536;2024-02-04T10:52:46;13.10;78.10
29687;DHT22;16599;47.078;15.536;2024-02-04T10:55:14;13.40;76.60
29687;DHT22;16599;47.078;15.536;2024-02-04T10:57:41;13.40;75.50
29687;DHT22;16599;47.078;15.536;2024-02-04T11:00:08;13.50;77.50
29687;DHT22;16599;47.078;15.536;2024-02-04T11:02:38;13.70;74.90
29687;DHT22;16599;47.078;15.536;2024-02-04T11:05:07;13.80;75.10
29687;DHT22;16599;47.078;15.536;2024-02-04T11:07:35;13.70;76.10
29687;DHT22;16599;47.078;15.536;2024-02-04T11:10:02;13.70;74.70
29687;DHT22;16599;47.078;15.536;2024-02-04T11:12:30;13.80;73.60
29687;DHT22;16599;47.078;15.536;2024-02-04T11:15:03;14.00;72.70
29687;DHT22;16599;47.078;15.536;2024-02-04T11:17:36;13.90;72.40
29687;DHT22;16599;47.078;15.536;2024-02-04T11:20:15;13.40;74.20
29687;DHT22;16599;47.078;15.536;2024-02-04T11:28:25;14.00;70.60
29687;DHT22;16599;47.078;15.536;2024-02-04T11:30:53;14.10;71.40
29687;DHT22;16599;47.078;15.536;2024-02-04T11:33:21;14.10;70.60
29687;DHT22;16599;47.078;15.536;2024-02-04T11:36:04;14.20;70.00
29687;DHT22;16599;47.078;15.536;2024-02-04T11:38:35;14.60;70.30
29687;DHT22;16599;47.078;15.536;2024-02-04T11:41:05;14.80;68.50
29687;DHT22;16599;47.078;15.536;2024-02-04T11:43:32;14.60;70.00
29687;DHT22;16599;47.078;15.536;2024-02-04T11:45:59;14.70;69.40
29687;DHT22;16599;47.078;15.536;2024-02-04T11:48:30;14.70;69.90
29687;DHT22;16599;47.078;15.536;2024-02-04T11:51:16;14.50;68.70
29687;DHT22;16599;47.078;15.536;2024-02-04T11:53:44;14.70;68.30
29687;DHT22;16599;47.078;15.536;2024-02-04T11:56:10;15.10;69.80
29687;DHT22;16599;47.078;15.536;2024-02-04T11:58:39;15.10;68.10
29687;DHT22;16599;47.078;15.536;2024-02-04T12:01:05;15.20;67.00
29687;DHT22;16599;47.078;15.536;2024-02-04T12:03:38;15.10;67.40
29687;DHT22;16599;47.078;15.536;2024-02-04T12:06:06;15.10;66.10
29687;DHT22;16599;47.078;15.536;2024-02-04T12:08:35;15.20;67.70
29687;DHT22;16599;47.078;15.536;2024-02-04T12:11:02;14.90;66.70
29687;DHT22;16599;47.078;15.536;2024-02-04T12:13:29;15.10;66.90
29687;DHT22;16599;47.078;15.536;2024-02-04T12:15:56;15.40;67.40
29687;DHT22;16599;47.078;15.536;2024-02-04T12:18:22;15.40;67.50
29687;DHT22;16599;47.078;15.536;2024-02-04T12:20:49;15.50;67.40
29687;DHT22;16599;47.078;15.536;2024-02-04T12:23:17;15.40;65.00
29687;DHT22;16599;47.078;15.536;2024-02-04T12:25:48;15.20;66.00
29687;DHT22;16599;47.078;15.536;2024-02-04T12:28:14;15.50;67.20
29687;DHT22;16599;47.078;15.536;2024-02-04T12:30:51;15.20;67.40
29687;DHT22;16599;47.078;15.536;2024-02-04T12:33:18;15.00;67.80
29687;DHT22;16599;47.078;15.536;2024-02-04T12:35:48;15.10;69.00
29687;DHT22;16599;47.078;15.536;2024-02-04T12:38:17;15.20;67.30
29687;DHT22;16599;47.078;15.536;2024-02-04T12:40:46;15.40;68.00
29687;DHT22;16599;47.078;15.536;2024-02-04T12:43:13;15.30;66.30
29687;DHT22;16599;47.078;15.536;2024-02-04T12:45:40;15.00;67.20
29687;DHT22;16599;47.078;15.536;2024-02-04T12:48:08;15.10;68.00
29687;DHT22;16599;47.078;15.536;2024-02-04T12:50:38;15.10;66.70
29687;DHT22;16599;47.078;15.536;2024-02-04T12:53:06;15.20;67.20
29687;DHT22;16599;47.078;15.536;2024-02-04T12:55:34;15.30;66.20
29687;DHT22;16599;47.078;15.536;2024-02-04T12:58:05;15.20;65.60
29687;DHT22;16599;47.078;15.536;2024-02-04T13:00:32;15.30;66.90
29687;DHT22;16599;47.078;15.536;2024-02-04T13:03:00;15.30;66.20
29687;DHT22;16599;47.078;15.536;2024-02-04T13:05:29;14.60;65.40
29687;DHT22;16599;47.078;15.536;2024-02-04T13:08:00;14.40;67.10
29687;DHT22;16599;47.078;15.536;2024-02-04T13:10:34;14.80;66.80
29687;DHT22;16599;47.078;15.536;2024-02-04T13:15:29;15.10;63.70
29687;DHT22;16599;47.078;15.536;2024-02-04T13:17:56;15.40;62.60
29687;DHT22;16599;47.078;15.536;2024-02-04T13:20:23;15.30;64.50
29687;DHT22;16599;47.078;15.536;2024-02-04T13:22:49;15.30;63.20
29687;DHT22;16599;47.078;15.536;2024-02-04T13:25:16;15.20;64.00
29687;DHT22;16599;47.078;15.536;2024-02-04T13:27:44;15.40;63.30
29687;DHT22;16599;47.078;15.536;2024-02-04T13:30:10;15.50;63.00
29687;DHT22;16599;47.078;15.536;2024-02-04T13:32:39;15.20;64.00
29687;DHT22;16599;47.078;15.536;2024-02-04T13:35:07;15.40;62.70
29687;DHT22;16599;47.078;15.536;2024-02-04T13:37:45;15.50;64.00
29687;DHT22;16599;47.078;15.536;2024-02-04T13:40:14;15.30;63.70
29687;DHT22;16599;47.078;15.536;2024-02-04T13:42:41;15.10;63.90
29687;DHT22;16599;47.078;15.536;2024-02-04T13:45:08;15.00;65.30
29687;DHT22;16599;47.078;15.536;2024-02-04T13:47:35;15.30;64.50
29687;DHT22;16599;47.078;15.536;2024-02-04T13:50:02;15.40;63.50
29687;DHT22;16599;47.078;15.536;2024-02-04T13:52:30;15.40;63.50
29687;DHT22;16599;47.078;15.536;2024-02-04T13:54:57;15.10;64.20
29687;DHT22;16599;47.078;15.536;2024-02-04T13:57:23;14.90;64.00
29687;DHT22;16599;47.078;15.536;2024-02-04T13:59:50;15.00;64.40
29687;DHT22;16599;47.078;15.536;2024-02-04T14:02:17;14.90;63.60
29687;DHT22;16599;47.078;15.536;2024-02-04T14:04:44;15.00;64.50
29687;DHT22;16599;47.078;15.536;2024-02-04T14:07:11;14.90;64.40
29687;DHT22;16599;47.078;15.536;2024-02-04T14:09:38;14.90;64.30
29687;DHT22;16599;47.078;15.536;2024-02-04T14:12:05;14.90;64.00
29687;DHT22;16599;47.078;15.536;2024-02-04T14:14:32;14.70;65.10
29687;DHT22;16599;47.078;15.536;2024-02-04T14:16:59;14.70;64.00
29687;DHT22;16599;47.078;15.536;2024-02-04T14:19:26;14.70;64.80
29687;DHT22;16599;47.078;15.536;2024-02-04T14:21:52;14.70;65.60
29687;DHT22;16599;47.078;15.536;2024-02-04T14:24:19;14.60;66.20
29687;DHT22;16599;47.078;15.536;2024-02-04T14:26:46;14.70;64.70
29687;DHT22;16599;47.078;15.536;2024-02-04T14:29:13;14.60;65.20
29687;DHT22;16599;47.078;15.536;2024-02-04T14:31:40;14.50;67.20
29687;DHT22;16599;47.078;15.536;2024-02-04T14:34:06;14.30;67.00
29687;DHT22;16599;47.078;15.536;2024-02-04T14:36:33;14.20;67.40
29687;DHT22;16599;47.078;15.536;2024-02-04T14:39:00;14.30;66.70
29687;DHT22;16599;47.078;15.536;2024-02-04T14:41:28;14.30;67.10
29687;DHT22;16599;47.078;15.536;2024-02-04T14:43:54;14.20;67.70
29687;DHT22;16599;47.078;15.536;2024-02-04T14:46:21;14.20;67.20
29687;DHT22;16599;47.078;15.536;2024-02-04T14:48:48;14.10;67.30
29687;DHT22;16599;47.078;15.536;2024-02-04T14:51:15;14.20;67.50
29687;DHT22;16599;47.078;15.536;2024-02-04T14:53:42;13.70;69.60
29687;DHT22;16599;47.078;15.536;2024-02-04T14:56:09;13.60;68.80
29687;DHT22;16599;47.078;15.536;2024-02-04T14:58:36;13.60;69.00
29687;DHT22;16599;47.078;15.536;2024-02-04T15:01:03;13.60;69.40
29687;DHT22;16599;47.078;15.536;2024-02-04T15:03:30;13.60;69.90
29687;DHT22;16599;47.078;15.536;2024-02-04T15:05:57;13.40;70.00
29687;DHT22;16599;47.078;15.536;2024-02-04T15:08:24;13.30;70.20
29687;DHT22;16599;47.078;15.536;2024-02-04T15:10:51;13.10;71.50
29687;DHT22;16599;47.078;15.536;2024-02-04T15:13:18;12.90;71.50
29687;DHT22;16599;47.078;15.536;2024-02-04T15:15:45;12.60;73.10
29687;DHT22;16599;47.078;15.536;2024-02-04T15:18:11;12.60;73.40
29687;DHT22;16599;47.078;15.536;2024-02-04T15:20:38;12.30;74.40
29687;DHT22;16599;47.078;15.536;2024-02-04T15:23:05;12.40;74.20
29687;DHT22;16599;47.078;15.536;2024-02-04T15:25:32;12.40;75.30
29687;DHT22;16599;47.078;15.536;2024-02-04T15:27:59;12.50;74.10
29687;DHT22;16599;47.078;15.536;2024-02-04T15:30:26;12.60;72.50
29687;DHT22;16599;47.078;15.536;2024-02-04T15:32:53;12.70;71.50
29687;DHT22;16599;47.078;15.536;2024-02-04T15:35:21;12.50;73.60
29687;DHT22;16599;47.078;15.536;2024-02-04T15:37:48;12.40;73.20
29687;DHT22;16599;47.078;15.536;2024-02-04T15:40:15;12.30;73.40